Time;durP1;ratioP1;P1;durP2;ratioP2;P2;SDS_P1;SDS_P2;PMS_P1;PMS_P2;Temp;Humidity;BMP_temperature;BMP_pressure;BME280_temperature;BME280_humidity;BME280_pressure;Samples;Min_cycle;Max_cycle;Signal;HPM_P1;HPM_P2
2021/07/13 00:01:03;;;;;;;7.38;6.78;;;;;;;24.04;66.05;100948.25;6194528;28;20233;-64
2021/07/13 00:04:25;;;;;;;7.20;6.50;;;;;;;24.03;66.14;100954.53;6192273;28;20644;-63
2021/07/13 00:07:49;;;;;;;8.48;7.75;;;;;;;24.05;65.79;100955.28;6196483;28;20229;-63
2021/07/13 00:11:10;;;;;;;8.38;7.68;;;;;;;24.10;65.60;100955.84;6189323;28;20229;-64
2021/07/13 00:14:32;;;;;;;7.72;7.03;;;;;;;23.96;66.47;100953.19;6186527;28;20234;-63
2021/07/13 00:17:54;;;;;;;7.68;6.93;;;;;;;24.09;65.41;100959.44;6192536;28;20230;-63
2021/07/13 00:21:17;;;;;;;8.32;7.60;;;;;;;23.96;65.99;100958.50;6191655;28;20229;-64
2021/07/13 00:24:37;;;;;;;7.28;6.57;;;;;;;23.95;66.17;100959.47;6192792;28;20321;-63
2021/07/13 00:27:58;;;;;;;7.25;6.65;;;;;;;23.97;66.43;100960.22;6183179;28;20676;-63
2021/07/13 00:31:20;;;;;;;7.35;6.70;;;;;;;24.04;65.74;100958.03;6193649;28;20241;-63
2021/07/13 00:34:41;;;;;;;7.75;7.13;;;;;;;24.00;66.56;100965.38;6186435;28;20226;-64
2021/07/13 00:38:03;;;;;;;7.72;7.05;;;;;;;23.89;66.95;100959.88;6181686;28;20226;-63
2021/07/13 00:41:25;;;;;;;7.45;6.72;;;;;;;23.93;66.74;100964.03;6196404;28;20225;-63
2021/07/13 00:44:47;;;;;;;8.15;7.55;;;;;;;23.94;66.63;100957.75;6184395;28;20230;-64
2021/07/13 00:48:09;;;;;;;7.38;6.85;;;;;;;24.01;66.46;100955.59;6185450;28;20515;-64
2021/07/13 00:51:30;;;;;;;6.80;6.20;;;;;;;24.03;66.32;100957.19;6184252;28;20312;-64
2021/07/13 00:54:53;;;;;;;6.97;6.47;;;;;;;23.93;66.51;100962.22;6191811;28;20234;-64
2021/07/13 00:58:14;;;;;;;7.10;6.50;;;;;;;23.92;66.60;100957.88;6187211;28;20265;-64
2021/07/13 01:01:36;;;;;;;8.48;7.78;;;;;;;23.78;67.30;100961.38;6190130;28;20313;-64
2021/07/13 01:05:00;;;;;;;7.93;7.32;;;;;;;23.79;67.82;100962.25;6185887;28;20245;-64
2021/07/13 01:08:34;;;;;;;7.78;6.97;;;;;;;23.85;67.65;100963.69;6187567;28;20225;-65
2021/07/13 01:12:05;;;;;;;7.53;6.75;;;;;;;23.84;67.48;100954.81;6190463;28;20229;-63
2021/07/13 01:15:31;;;;;;;7.65;7.15;;;;;;;23.92;66.93;100959.66;6184273;28;20241;-63
2021/07/13 01:18:59;;;;;;;8.68;7.82;;;;;;;23.89;66.94;100952.75;6181084;28;20761;-63
2021/07/13 01:22:26;;;;;;;8.75;7.32;;;;;;;23.93;67.03;100945.44;6180570;28;20319;-64
2021/07/13 01:25:56;;;;;;;7.35;6.72;;;;;;;23.99;66.98;100937.06;6184866;28;20308;-63
2021/07/13 01:29:20;;;;;;;9.50;8.70;;;;;;;24.05;66.92;100927.81;6186873;28;20225;-63
2021/07/13 01:32:45;;;;;;;9.38;8.48;;;;;;;23.87;67.49;100930.72;6183660;28;20545;-64
2021/07/13 01:36:09;;;;;;;7.80;6.88;;;;;;;23.86;67.55;100941.44;6185009;28;20796;-64
2021/07/13 01:39:31;;;;;;;8.70;8.00;;;;;;;23.82;67.40;100938.09;6185523;28;20549;-64
2021/07/13 01:42:53;;;;;;;8.30;7.75;;;;;;;23.80;67.84;100926.72;6190147;28;20238;-64
2021/07/13 01:46:17;;;;;;;8.57;7.90;;;;;;;24.09;66.79;100916.03;6189526;28;20249;-63
2021/07/13 01:49:39;;;;;;;8.50;7.72;;;;;;;24.01;67.18;100913.88;6186198;28;20245;-64
2021/07/13 01:53:02;;;;;;;8.68;7.88;;;;;;;23.98;66.61;100898.09;6183267;28;20600;-63
2021/07/13 01:56:24;;;;;;;7.90;7.30;;;;;;;23.74;68.13;100898.69;6184413;28;20233;-64
2021/07/13 01:59:46;;;;;;;8.40;7.80;;;;;;;23.89;67.36;100886.25;6183564;28;20238;-63
2021/07/13 02:03:10;;;;;;;8.45;7.75;;;;;;;23.81;67.84;100879.69;6181273;28;20237;-62
2021/07/13 02:06:31;;;;;;;8.85;8.15;;;;;;;23.79;67.67;100887.81;6182638;28;20608;-63
2021/07/13 02:09:52;;;;;;;9.02;8.13;;;;;;;23.71;68.10;100890.03;6183231;28;20320;-63
2021/07/13 02:13:15;;;;;;;8.63;7.93;;;;;;;23.46;68.64;100898.69;6188833;28;20568;-63
2021/07/13 02:16:37;;;;;;;9.45;8.68;;;;;;;23.43;69.29;100893.59;6186559;28;20230;-64
2021/07/13 02:20:00;;;;;;;8.40;7.60;;;;;;;23.45;68.85;100889.03;6168208;28;20316;-64
2021/07/13 02:23:21;;;;;;;9.40;8.48;;;;;;;23.47;68.94;100892.44;6184202;28;20241;-65
2021/07/13 02:26:52;;;;;;;9.82;9.05;;;;;;;23.51;68.68;100893.94;6186078;28;20233;-64
2021/07/13 02:30:14;;;;;;;10.27;8.93;;;;;;;23.66;67.41;100903.63;6182569;28;20217;-63
2021/07/13 02:33:43;;;;;;;9.50;8.45;;;;;;;23.55;68.28;100895.47;6194292;28;20221;-63
2021/07/13 02:37:08;;;;;;;9.13;8.32;;;;;;;23.54;68.37;100894.63;6179093;28;20237;-64
2021/07/13 02:40:29;;;;;;;9.60;8.80;;;;;;;23.73;67.62;100894.31;6187364;28;20356;-65
2021/07/13 02:43:53;;;;;;;10.32;9.27;;;;;;;23.71;67.64;100888.25;6186155;28;20237;-64
2021/07/13 02:47:15;;;;;;;9.00;8.07;;;;;;;23.65;67.75;100891.31;6186617;28;20229;-64
2021/07/13 02:50:37;;;;;;;8.57;7.88;;;;;;;23.71;67.51;100880.28;6183947;28;20222;-62
2021/07/13 02:53:59;;;;;;;9.93;9.07;;;;;;;23.61;67.72;100889.75;6182222;28;20237;-64
2021/07/13 02:57:24;;;;;;;10.93;10.02;;;;;;;23.43;68.45;100894.44;6185422;28;20247;-64
2021/07/13 03:00:45;;;;;;;9.88;9.00;;;;;;;23.34;68.94;100885.22;6185690;28;20237;-63
2021/07/13 03:04:06;;;;;;;13.65;12.40;;;;;;;23.31;69.18;100888.06;6185815;28;20222;-63
2021/07/13 03:07:28;;;;;;;13.57;10.50;;;;;;;23.35;69.13;100883.41;6193863;28;20317;-63
2021/07/13 03:10:54;;;;;;;10.23;9.35;;;;;;;23.44;68.59;100890.84;6189039;28;20312;-63
2021/07/13 03:14:18;;;;;;;13.45;12.32;;;;;;;23.24;69.00;100884.06;6191952;28;20325;-64
2021/07/13 03:17:39;;;;;;;11.80;10.60;;;;;;;23.21;69.65;100884.28;6185042;28;20603;-63
2021/07/13 03:21:04;;;;;;;11.68;10.57;;;;;;;23.22;69.36;100885.13;6191205;28;20234;-63
2021/07/13 03:24:27;;;;;;;11.77;10.68;;;;;;;23.06;69.96;100894.00;6191604;28;20237;-64
2021/07/13 03:27:51;;;;;;;11.52;10.43;;;;;;;23.12;69.65;100890.97;6190002;28;20230;-64
2021/07/13 03:31:12;;;;;;;11.77;10.13;;;;;;;23.13;69.35;100895.38;6192030;28;20242;-64
2021/07/13 03:34:34;;;;;;;12.98;11.45;;;;;;;23.29;69.33;100895.28;6196745;28;20610;-63
2021/07/13 03:37:56;;;;;;;13.63;10.18;;;;;;;23.20;69.13;100901.16;6190162;28;20685;-65
2021/07/13 03:41:18;;;;;;;9.77;8.98;;;;;;;23.27;69.16;100899.84;6185564;28;20229;-63
2021/07/13 03:44:41;;;;;;;13.18;12.10;;;;;;;23.34;68.82;100895.88;6188497;28;20229;-63
2021/07/13 03:48:02;;;;;;;17.02;15.55;;;;;;;23.35;68.79;100886.94;6187162;28;20662;-63
2021/07/13 03:51:36;;;;;;;16.67;15.25;;;;;;;23.21;68.91;100897.56;6189989;28;20234;-64
2021/07/13 03:54:56;;;;;;;13.60;12.30;;;;;;;23.24;68.99;100897.34;6192453;28;20225;-64
2021/07/13 03:58:17;;;;;;;16.17;13.52;;;;;;;23.35;68.16;100899.38;6181251;28;20237;-64
2021/07/13 04:01:40;;;;;;;14.35;13.25;;;;;;;23.36;68.52;100901.06;6187926;28;20233;-64
2021/07/13 04:05:01;;;;;;;14.55;13.25;;;;;;;23.30;68.80;100891.69;6189144;28;20265;-63
2021/07/13 04:08:22;;;;;;;12.50;11.50;;;;;;;23.26;68.98;100900.75;6188046;28;20312;-62
2021/07/13 04:11:44;;;;;;;15.00;13.00;;;;;;;23.42;68.17;100895.38;6190698;28;20230;-64
2021/07/13 04:15:07;;;;;;;13.23;12.07;;;;;;;23.43;68.35;100901.56;6189027;28;20324;-65
2021/07/13 04:18:30;;;;;;;12.35;11.25;;;;;;;23.48;68.29;100897.66;6181187;28;20227;-63
2021/07/13 04:21:51;;;;;;;14.32;12.93;;;;;;;23.47;68.37;100903.06;6189492;28;20491;-63
2021/07/13 04:25:14;;;;;;;11.50;10.45;;;;;;;23.67;67.70;100899.16;6189246;28;20230;-65
2021/07/13 04:28:35;;;;;;;13.23;12.20;;;;;;;23.85;66.58;100897.19;6196198;28;20346;-64
2021/07/13 04:31:55;;;;;;;14.32;12.82;;;;;;;23.70;67.62;100904.28;6187660;28;20229;-63
2021/07/13 04:35:18;;;;;;;11.85;10.75;;;;;;;23.68;67.54;100901.72;6184976;28;20234;-64
2021/07/13 04:38:41;;;;;;;13.20;12.10;;;;;;;23.51;67.99;100901.91;6186717;28;20308;-64
2021/07/13 04:42:02;;;;;;;13.25;11.90;;;;;;;23.64;67.84;100900.22;6190107;28;20645;-63
2021/07/13 04:45:23;;;;;;;12.30;11.13;;;;;;;23.83;66.94;100905.25;6187992;28;20234;-63
2021/07/13 04:48:43;;;;;;;12.85;11.65;;;;;;;23.98;66.71;100900.75;6178213;28;20242;-63
2021/07/13 04:52:07;;;;;;;10.75;9.85;;;;;;;24.33;65.06;100905.59;6189492;28;20245;-64
2021/07/13 04:55:27;;;;;;;12.35;11.25;;;;;;;24.39;64.70;100905.22;6184420;28;20238;-63
2021/07/13 04:58:49;;;;;;;14.07;12.88;;;;;;;24.03;66.30;100901.31;6187011;28;20316;-64
2021/07/13 05:02:10;;;;;;;15.43;14.13;;;;;;;23.92;66.54;100906.47;6179631;28;20233;-65
2021/07/13 05:05:31;;;;;;;12.75;11.63;;;;;;;24.17;65.70;100908.41;6181870;28;20242;-64
2021/07/13 05:08:53;;;;;;;16.85;15.45;;;;;;;23.81;66.81;100911.59;6184707;28;20230;-63
2021/07/13 05:12:14;;;;;;;14.57;13.38;;;;;;;24.08;66.41;100909.88;6189922;28;20245;-63
2021/07/13 05:15:35;;;;;;;14.00;12.93;;;;;;;24.49;64.71;100914.28;6187114;28;20241;-63
2021/07/13 05:18:56;;;;;;;14.65;13.38;;;;;;;24.49;64.66;100922.28;6180908;28;20238;-63
2021/07/13 05:22:19;;;;;;;13.15;11.88;;;;;;;24.63;63.74;100925.88;6175812;28;20233;-62
2021/07/13 05:25:42;;;;;;;11.95;11.15;;;;;;;24.66;63.78;100921.22;6186997;28;20257;-64
2021/07/13 05:29:05;;;;;;;16.88;15.50;;;;;;;24.63;63.71;100915.22;6186734;28;20234;-62
2021/07/13 05:32:26;;;;;;;13.35;12.18;;;;;;;24.74;63.47;100916.22;6188740;28;20237;-63
2021/07/13 05:35:47;;;;;;;10.30;9.50;;;;;;;24.57;64.23;100919.16;6190135;28;20233;-64
2021/07/13 05:39:09;;;;;;;12.55;11.48;;;;;;;24.56;64.10;100912.97;6186375;28;20225;-65
2021/07/13 05:42:31;;;;;;;13.23;12.13;;;;;;;24.79;63.15;100915.03;6182759;28;20229;-63
2021/07/13 05:45:52;;;;;;;11.57;10.77;;;;;;;25.08;62.10;100911.25;6188507;28;20612;-64
2021/07/13 05:49:13;;;;;;;12.40;11.40;;;;;;;24.95;62.73;100905.91;6171314;28;20316;-64
2021/07/13 05:52:35;;;;;;;12.73;11.60;;;;;;;25.09;62.42;100910.31;6188852;28;20337;-64
2021/07/13 05:55:56;;;;;;;9.35;8.55;;;;;;;25.38;61.25;100906.59;6184147;28;20233;-65
2021/07/13 05:59:18;;;;;;;10.50;9.68;;;;;;;25.16;61.69;100908.06;6183334;28;20317;-64
2021/07/13 06:02:39;;;;;;;12.43;11.43;;;;;;;25.35;61.17;100899.66;6182457;28;20689;-63
2021/07/13 06:06:00;;;;;;;12.65;11.45;;;;;;;25.61;60.65;100903.19;6177087;28;20608;-64
2021/07/13 06:09:21;;;;;;;11.40;10.50;;;;;;;25.56;60.34;100894.66;6186115;28;20230;-64
2021/07/13 06:12:42;;;;;;;12.88;11.77;;;;;;;25.83;59.27;100913.16;6176116;28;20242;-66
2021/07/13 06:16:04;;;;;;;10.68;9.75;;;;;;;25.98;58.75;100905.91;6173672;28;20225;-65
2021/07/13 06:19:25;;;;;;;12.63;11.52;;;;;;;25.57;59.52;100912.38;6187769;28;20229;-66
2021/07/13 06:22:46;;;;;;;12.30;11.20;;;;;;;25.78;58.76;100909.13;6178871;28;20332;-67
2021/07/13 06:26:07;;;;;;;15.00;13.63;;;;;;;25.95;58.48;100900.78;6179231;28;20615;-66
2021/07/13 06:29:28;;;;;;;12.40;11.48;;;;;;;26.18;57.42;100892.91;6179830;28;20229;-65
2021/07/13 06:32:50;;;;;;;10.88;9.88;;;;;;;26.17;57.57;100897.38;6187083;28;20234;-65
2021/07/13 06:36:11;;;;;;;11.27;10.45;;;;;;;26.04;57.97;100897.44;6175253;28;20560;-64
2021/07/13 06:39:32;;;;;;;11.52;10.60;;;;;;;26.33;57.55;100905.13;6181516;28;20355;-66
2021/07/13 06:42:53;;;;;;;10.13;9.35;;;;;;;26.50;57.32;100906.53;6187358;28;20241;-67
2021/07/13 06:46:14;;;;;;;9.02;8.27;;;;;;;26.73;56.21;100902.16;6178188;28;20246;-66
2021/07/13 06:49:36;;;;;;;12.98;11.98;;;;;;;26.21;55.90;100900.69;6191067;28;20264;-67
2021/07/13 06:52:57;;;;;;;10.52;9.55;;;;;;;26.44;56.85;100907.81;6184622;28;20230;-65
2021/07/13 06:56:18;;;;;;;11.32;10.52;;;;;;;26.38;56.88;100910.13;6193321;28;20671;-65
2021/07/13 06:59:39;;;;;;;10.77;9.80;;;;;;;26.60;56.00;100902.25;6186263;28;20225;-67
2021/07/13 07:03:01;;;;;;;9.02;8.23;;;;;;;26.68;56.02;100904.34;6191249;28;20682;-63
2021/07/13 07:06:23;;;;;;;12.35;11.55;;;;;;;26.47;56.03;100899.59;6185154;28;21238;-62
2021/07/13 07:09:44;;;;;;;11.05;10.23;;;;;;;25.99;57.76;100894.25;6189880;28;20834;-64
2021/07/13 07:13:05;;;;;;;9.18;8.38;;;;;;;26.51;56.32;100895.72;6182009;28;20321;-63
2021/07/13 07:16:26;;;;;;;10.98;10.02;;;;;;;26.44;56.50;100896.31;6180221;28;20234;-63
2021/07/13 07:19:47;;;;;;;10.70;9.88;;;;;;;26.77;55.21;100890.25;6184670;28;20249;-63
2021/07/13 07:23:10;;;;;;;10.00;9.18;;;;;;;27.12;53.96;100905.41;6186111;28;20246;-65
2021/07/13 07:26:30;;;;;;;10.13;9.32;;;;;;;26.87;54.00;100899.31;6180855;28;20251;-64
2021/07/13 07:29:51;;;;;;;12.10;11.20;;;;;;;26.88;54.04;100901.00;6184662;28;20234;-65
2021/07/13 07:33:12;;;;;;;11.77;10.98;;;;;;;26.64;53.89;100897.53;6185530;28;20608;-65
2021/07/13 07:36:34;;;;;;;11.80;11.00;;;;;;;27.15;53.79;100907.84;6181628;28;20320;-64
2021/07/13 07:39:56;;;;;;;10.90;10.20;;;;;;;27.17;53.87;100902.41;6179148;28;20520;-64
2021/07/13 07:43:17;;;;;;;12.57;11.55;;;;;;;26.82;53.54;100901.47;6183854;28;20324;-65
2021/07/13 07:46:41;;;;;;;10.95;10.25;;;;;;;27.08;53.44;100895.94;6182889;28;20242;-64
2021/07/13 07:50:02;;;;;;;11.07;10.07;;;;;;;27.28;52.63;100894.44;6185730;28;20226;-64
2021/07/13 07:53:23;;;;;;;11.13;10.43;;;;;;;27.40;52.18;100895.28;6178461;28;20237;-63
2021/07/13 07:56:46;;;;;;;12.10;11.30;;;;;;;27.21;53.61;100891.34;6175609;28;20242;-65
2021/07/13 08:00:09;;;;;;;9.55;8.82;;;;;;;27.90;52.23;100898.44;6180190;28;20821;-63
2021/07/13 08:03:32;;;;;;;11.40;10.40;;;;;;;28.07;52.11;100889.00;6188026;28;20234;-61
2021/07/13 08:06:53;;;;;;;12.32;11.32;;;;;;;27.67;51.63;100892.22;6186120;28;20225;-63
2021/07/13 08:10:16;;;;;;;11.88;11.07;;;;;;;27.66;51.86;100891.34;6161320;28;20253;-63
2021/07/13 08:13:38;;;;;;;11.05;10.27;;;;;;;27.56;51.17;100890.41;6177218;28;20226;-63
2021/07/13 08:16:58;;;;;;;11.57;10.68;;;;;;;27.50;50.55;100885.53;6182406;28;20241;-63
2021/07/13 08:20:20;;;;;;;10.65;9.75;;;;;;;28.15;49.55;100875.00;6183205;28;20233;-63
2021/07/13 08:23:41;;;;;;;9.45;8.75;;;;;;;28.45;49.11;100875.13;6184753;28;20317;-65
2021/07/13 08:27:03;;;;;;;9.73;9.07;;;;;;;28.38;48.52;100873.09;6181714;28;20237;-61
2021/07/13 08:30:27;;;;;;;10.10;9.40;;;;;;;28.74;48.25;100881.75;6179405;28;20237;-64
2021/07/13 08:33:48;;;;;;;9.27;8.68;;;;;;;28.65;47.71;100872.63;6172115;28;20243;-63
2021/07/13 08:37:09;;;;;;;9.43;8.82;;;;;;;29.04;46.82;100873.75;6182032;28;20234;-62
2021/07/13 08:40:34;;;;;;;9.57;8.85;;;;;;;29.18;45.79;100869.06;6177434;28;20616;-64
2021/07/13 08:43:55;;;;;;;9.35;8.65;;;;;;;29.30;45.86;100870.66;6178597;28;20234;-64
2021/07/13 08:47:18;;;;;;;8.93;8.15;;;;;;;29.39;44.66;100871.69;6182795;28;20222;-64
2021/07/13 08:50:39;;;;;;;9.95;9.25;;;;;;;28.96;45.70;100867.34;6186751;28;20226;-64
2021/07/13 08:54:01;;;;;;;8.98;8.48;;;;;;;29.12;45.45;100866.84;6182764;28;20492;-63
2021/07/13 08:57:22;;;;;;;8.68;8.07;;;;;;;29.09;46.06;100861.78;6183771;28;20234;-64
2021/07/13 09:00:43;;;;;;;10.35;9.65;;;;;;;29.27;43.76;100862.88;6181168;28;20225;-64
2021/07/13 09:04:08;;;;;;;9.38;8.77;;;;;;;28.42;45.32;100864.69;6185221;28;20253;-62
2021/07/13 09:07:30;;;;;;;9.95;9.25;;;;;;;28.90;45.23;100863.34;6183272;28;20222;-63
2021/07/13 09:11:00;;;;;;;8.85;8.25;;;;;;;29.14;45.13;100864.94;6185838;28;20234;-63
2021/07/13 09:14:21;;;;;;;9.63;8.77;;;;;;;28.18;45.69;100858.69;6181594;28;20258;-62
2021/07/13 09:17:44;;;;;;;9.30;8.70;;;;;;;28.93;45.05;100856.91;6186491;28;20230;-62
2021/07/13 09:21:14;;;;;;;8.40;7.85;;;;;;;29.96;43.41;100853.25;6186380;28;20238;-64
2021/07/13 09:24:35;;;;;;;9.70;9.00;;;;;;;29.89;43.34;100858.31;6183390;28;20230;-64
2021/07/13 09:28:14;;;;;;;9.20;8.60;;;;;;;29.41;44.17;100858.97;6185822;28;20261;-64
2021/07/13 09:31:35;;;;;;;9.93;9.30;;;;;;;29.65;44.48;100854.13;6181102;28;20245;-64
2021/07/13 09:34:58;;;;;;;9.35;8.65;;;;;;;29.22;44.51;100860.59;6183568;28;20235;-64
2021/07/13 09:38:23;;;;;;;8.27;7.78;;;;;;;29.49;43.66;100851.13;6180237;28;20229;-66
2021/07/13 09:41:51;;;;;;;8.73;8.02;;;;;;;29.68;44.04;100846.78;6184043;28;20222;-63
2021/07/13 09:45:28;;;;;;;7.75;7.25;;;;;;;29.73;43.21;100844.56;6182936;28;20332;-64
2021/07/13 09:49:12;;;;;;;8.10;7.60;;;;;;;30.39;42.54;100847.47;6181561;28;20234;-66
2021/07/13 09:52:33;;;;;;;9.25;8.45;;;;;;;29.50;42.64;100842.06;6185310;28;20230;-66
2021/07/13 09:55:57;;;;;;;8.23;7.45;;;;;;;30.00;42.85;100839.38;6179786;28;20233;-66
2021/07/13 09:59:18;;;;;;;7.63;7.03;;;;;;;29.54;43.38;100838.13;6173550;28;20246;-64
2021/07/13 10:02:39;;;;;;;7.38;6.80;;;;;;;29.83;42.75;100832.03;6183512;28;21691;-64
2021/07/13 10:06:01;;;;;;;7.45;6.95;;;;;;;30.02;41.53;100836.56;6179686;28;20238;-65
2021/07/13 10:09:29;;;;;;;7.50;6.82;;;;;;;28.97;42.76;100844.94;6180642;28;20324;-64
2021/07/13 10:12:54;;;;;;;8.25;7.65;;;;;;;29.83;42.11;100840.91;6181794;28;20232;-66
2021/07/13 10:16:15;;;;;;;7.65;7.15;;;;;;;29.90;41.87;100838.53;6179828;28;20279;-63
2021/07/13 10:19:39;;;;;;;7.75;7.25;;;;;;;29.74;42.10;100839.09;6182484;28;20237;-63
2021/07/13 10:23:03;;;;;;;7.57;7.07;;;;;;;29.78;42.17;100840.50;6185454;28;21150;-63
2021/07/13 10:26:49;;;;;;;7.40;6.90;;;;;;;30.01;41.05;100838.41;6184080;28;20277;-63
2021/07/13 10:30:37;;;;;;;6.57;6.15;;;;;;;29.72;40.82;100845.53;6182899;28;20229;-65
2021/07/13 10:33:58;;;;;;;6.43;5.85;;;;;;;30.38;39.70;100836.88;6186423;28;20534;-62
2021/07/13 10:37:28;;;;;;;6.38;5.93;;;;;;;30.33;39.04;100839.16;6184507;28;20238;-63
2021/07/13 10:40:50;;;;;;;7.75;7.25;;;;;;;30.76;38.85;100844.03;6180183;28;20574;-63
2021/07/13 10:44:11;;;;;;;6.03;5.70;;;;;;;30.51;38.89;100841.97;6177657;28;20533;-64
2021/07/13 10:47:35;;;;;;;6.63;6.22;;;;;;;30.52;38.41;100847.19;6187382;28;20522;-64
2021/07/13 10:50:59;;;;;;;6.63;6.13;;;;;;;30.88;37.85;100843.88;6182421;28;20329;-65
2021/07/13 10:54:29;;;;;;;8.05;7.10;;;;;;;30.52;38.42;100841.00;6175820;28;20309;-64
2021/07/13 10:58:21;;;;;;;7.32;6.93;;;;;;;30.54;39.36;100834.47;6184679;28;20275;-64
2021/07/13 11:01:43;;;;;;;6.97;6.57;;;;;;;30.28;39.87;100842.22;6182597;28;20230;-64
2021/07/13 11:05:37;;;;;;;6.65;6.25;;;;;;;30.00;39.01;100844.75;6174488;28;20245;-64
2021/07/13 11:09:01;;;;;;;7.28;6.78;;;;;;;30.50;38.51;100838.44;6179300;28;20229;-64
2021/07/13 11:12:23;;;;;;;7.88;7.28;;;;;;;31.12;37.95;100852.34;6187703;28;20546;-64
2021/07/13 11:15:48;;;;;;;7.95;7.35;;;;;;;31.09;38.16;100858.00;6177673;28;20222;-64
2021/07/13 11:19:12;;;;;;;7.80;7.20;;;;;;;30.82;37.93;100856.06;6184771;28;20281;-63
2021/07/13 11:22:35;;;;;;;7.03;6.32;;;;;;;30.28;39.78;100852.13;6184699;28;20229;-64
2021/07/13 11:26:04;;;;;;;6.63;6.22;;;;;;;30.46;38.97;100841.53;6187407;28;20234;-64
2021/07/13 11:29:26;;;;;;;6.97;6.53;;;;;;;31.05;38.93;100843.16;6190013;28;20672;-64
2021/07/13 11:33:00;;;;;;;7.25;6.65;;;;;;;31.28;38.26;100850.88;6171360;28;20557;-62
2021/07/13 11:36:26;;;;;;;8.50;7.93;;;;;;;31.19;37.92;100844.50;6170078;28;20237;-62
2021/07/13 11:39:47;;;;;;;6.53;6.05;;;;;;;31.66;37.75;100839.09;6159480;28;20279;-62
2021/07/13 11:43:09;;;;;;;6.70;6.18;;;;;;;31.62;36.61;100842.22;6186037;28;20242;-61
2021/07/13 11:46:33;;;;;;;6.45;5.95;;;;;;;31.36;37.17;100838.34;6181730;28;20258;-62
2021/07/13 11:49:54;;;;;;;5.88;5.32;;;;;;;30.22;38.69;100832.91;6187394;28;20241;-63
2021/07/13 11:53:22;;;;;;;6.18;5.78;;;;;;;29.96;39.97;100831.75;6175339;28;20697;-61
2021/07/13 11:56:46;;;;;;;5.78;5.28;;;;;;;30.04;39.40;100832.75;6179734;28;20233;-63
2021/07/13 12:00:09;;;;;;;5.20;4.90;;;;;;;30.12;39.46;100828.53;6185026;28;20556;-62
2021/07/13 12:03:30;;;;;;;9.80;6.75;;;;;;;29.80;39.12;100830.47;6185138;28;20229;-62
2021/07/13 12:06:53;;;;;;;5.43;5.03;;;;;;;29.59;39.92;100827.84;6186644;28;20328;-63
2021/07/13 12:10:15;;;;;;;5.72;5.25;;;;;;;29.73;39.02;100820.44;6169636;28;20810;-62
2021/07/13 12:13:37;;;;;;;6.55;5.28;;;;;;;29.44;40.33;100826.53;6182887;28;20226;-62
2021/07/13 12:17:00;;;;;;;5.35;4.95;;;;;;;29.84;39.45;100833.72;6176601;28;20238;-62
2021/07/13 12:20:22;;;;;;;5.97;5.57;;;;;;;29.59;39.49;100833.22;6187949;28;20234;-64
2021/07/13 12:23:44;;;;;;;4.70;4.40;;;;;;;30.29;38.91;100833.19;6187046;28;20820;-65
2021/07/13 12:27:06;;;;;;;5.65;5.30;;;;;;;30.51;39.28;100828.53;6192563;28;20791;-64
2021/07/13 12:30:27;;;;;;;5.18;4.85;;;;;;;30.21;38.41;100833.06;6188757;28;20634;-62
2021/07/13 12:33:52;;;;;;;6.18;5.47;;;;;;;30.29;38.06;100821.59;6183470;28;20246;-63
2021/07/13 12:37:15;;;;;;;4.82;4.53;;;;;;;29.81;39.22;100823.25;6183150;28;20246;-65
2021/07/13 12:40:36;;;;;;;5.80;5.35;;;;;;;30.51;37.84;100828.53;6176501;28;21275;-65
2021/07/13 12:43:57;;;;;;;6.07;5.68;;;;;;;30.02;38.25;100825.84;6179846;28;20230;-63
2021/07/13 12:47:28;;;;;;;4.85;4.55;;;;;;;30.59;38.03;100823.28;6182406;28;20272;-63
2021/07/13 12:50:51;;;;;;;5.35;5.05;;;;;;;29.84;38.61;100825.69;6184037;28;20237;-63
2021/07/13 12:54:12;;;;;;;5.72;5.32;;;;;;;29.88;38.01;100821.72;6181597;28;20234;-63
2021/07/13 12:57:35;;;;;;;4.75;4.35;;;;;;;30.03;37.08;100817.66;6179006;28;20234;-65
2021/07/13 13:00:57;;;;;;;4.38;4.03;;;;;;;30.30;37.88;100824.16;6179996;28;20338;-63
2021/07/13 13:04:19;;;;;;;5.47;4.97;;;;;;;29.81;37.54;100815.22;6176998;28;20233;-62
2021/07/13 13:07:41;;;;;;;5.82;5.45;;;;;;;28.74;39.68;100815.59;6180114;28;20628;-64
2021/07/13 13:11:04;;;;;;;5.10;4.70;;;;;;;29.17;39.58;100817.25;6184509;28;20257;-65
2021/07/13 13:14:31;;;;;;;6.57;5.68;;;;;;;28.82;39.01;100821.13;6185121;28;20540;-64
2021/07/13 13:17:52;;;;;;;5.03;4.72;;;;;;;28.97;38.99;100812.78;6181211;28;20237;-64
2021/07/13 13:21:14;;;;;;;4.95;4.60;;;;;;;29.75;37.65;100821.13;6180924;28;20238;-65
2021/07/13 13:24:37;;;;;;;6.47;5.97;;;;;;;29.88;36.77;100819.03;6185545;28;20233;-63
2021/07/13 13:27:57;;;;;;;5.60;5.10;;;;;;;29.83;37.72;100824.81;6177268;28;20998;-64
2021/07/13 13:31:19;;;;;;;6.72;5.30;;;;;;;29.83;38.02;100826.66;6185269;28;20241;-64
2021/07/13 13:34:39;;;;;;;5.55;5.05;;;;;;;29.59;37.70;100825.16;6180712;28;20234;-66
2021/07/13 13:38:09;;;;;;;5.53;4.97;;;;;;;30.09;37.73;100820.72;6174765;28;20234;-65
2021/07/13 13:41:33;;;;;;;4.05;3.80;;;;;;;30.06;36.73;100819.19;6175735;28;20314;-63
2021/07/13 13:44:53;;;;;;;6.72;5.10;;;;;;;30.98;36.38;100812.47;6180278;28;20253;-62
2021/07/13 13:48:15;;;;;;;5.45;4.93;;;;;;;31.78;34.74;100805.56;6185085;28;20627;-64
2021/07/13 13:51:36;;;;;;;4.60;4.30;;;;;;;30.79;35.02;100824.09;6185223;28;20230;-62
2021/07/13 13:54:56;;;;;;;5.22;4.82;;;;;;;31.57;34.67;100816.59;6170419;28;20221;-63
2021/07/13 13:58:19;;;;;;;5.40;4.88;;;;;;;33.32;32.80;100807.91;6182585;28;20226;-60
2021/07/13 14:01:40;;;;;;;5.18;4.78;;;;;;;33.30;30.83;100810.78;6176508;28;20245;-60
2021/07/13 14:05:01;;;;;;;6.57;6.10;;;;;;;32.95;31.88;100809.91;6171860;28;20233;-60
2021/07/13 14:08:22;;;;;;;9.88;9.10;;;;;;;33.63;32.20;100797.41;6178615;28;20257;-61
2021/07/13 14:11:43;;;;;;;6.20;5.63;;;;;;;34.12;30.96;100802.03;6173736;28;20309;-52
2021/07/13 14:15:07;;;;;;;4.80;4.50;;;;;;;33.19;31.80;100799.44;6143344;28;20506;-49
2021/07/13 14:18:29;;;;;;;5.00;4.70;;;;;;;33.12;31.73;100805.47;6171766;28;20225;-49
2021/07/13 14:21:50;;;;;;;6.35;5.40;;;;;;;31.71;33.84;100801.78;6187037;28;20229;-49
2021/07/13 14:25:15;;;;;;;4.90;4.60;;;;;;;32.12;33.60;100798.66;6178336;28;20238;-55
2021/07/13 14:28:35;;;;;;;9.80;9.15;;;;;;;32.16;33.81;100802.75;6182998;28;20293;-48
2021/07/13 14:31:58;;;;;;;4.20;3.95;;;;;;;31.92;34.01;100795.28;6172023;28;20603;-52
2021/07/13 14:35:18;;;;;;;4.95;4.60;;;;;;;32.39;34.11;100792.31;6159705;28;20311;-53
2021/07/13 14:38:39;;;;;;;7.63;7.03;;;;;;;31.94;34.33;100790.56;6177873;28;20229;-47
2021/07/13 14:42:00;;;;;;;5.30;5.00;;;;;;;31.82;34.01;100784.56;6172385;28;20250;-50
2021/07/13 14:45:21;;;;;;;5.18;4.88;;;;;;;30.67;36.46;100798.38;6171950;28;20233;-49
2021/07/13 14:48:44;;;;;;;4.63;4.32;;;;;;;30.27;37.52;100802.09;6187452;28;20237;-53
2021/07/13 14:52:08;;;;;;;5.28;4.78;;;;;;;29.82;38.46;100808.88;6187209;28;20234;-52
2021/07/13 14:55:29;;;;;;;5.18;4.80;;;;;;;29.69;39.29;100802.88;6165452;28;20304;-55
2021/07/13 14:58:57;;;;;;;5.63;5.13;;;;;;;29.74;40.03;100808.69;6151472;28;20233;-52
2021/07/13 15:02:17;;;;;;;5.85;5.45;;;;;;;29.62;40.05;100803.44;6180878;28;20559;-50
2021/07/13 15:05:40;;;;;;;5.22;4.82;;;;;;;29.75;39.92;100807.72;6180805;28;20291;-51
2021/07/13 15:09:01;;;;;;;5.40;5.00;;;;;;;29.69;39.90;100802.88;6181556;28;20497;-52
2021/07/13 15:12:22;;;;;;;5.63;5.22;;;;;;;29.54;40.48;100797.03;6189226;28;20230;-48
2021/07/13 15:15:44;;;;;;;5.93;5.43;;;;;;;29.38;40.66;100798.41;6175282;28;20233;-48
2021/07/13 15:19:05;;;;;;;6.00;5.60;;;;;;;29.42;41.19;100804.34;6188063;28;20234;-54
2021/07/13 15:22:27;;;;;;;7.18;6.68;;;;;;;29.69;41.16;100801.03;6183276;28;20230;-52
2021/07/13 15:25:48;;;;;;;6.60;6.05;;;;;;;29.68;41.89;100796.63;6191028;28;20238;-52
2021/07/13 15:29:09;;;;;;;7.15;6.63;;;;;;;30.07;41.30;100802.09;6188440;28;20241;-53
2021/07/13 15:32:29;;;;;;;7.10;6.68;;;;;;;30.15;41.75;100796.03;6185803;28;20238;-54
2021/07/13 15:35:51;;;;;;;8.80;8.10;;;;;;;30.22;42.67;100789.09;6187415;28;20233;-53